sensor_id;sensor_type;location;lat;lon;timestamp;pressure;altitude;pressure_sealevel;temperature
41654;BMP280;30790;52.030;7.110;2023-02-28T00:00:49;102343.44;;;20.29
41654;BMP280;30790;52.030;7.110;2023-02-28T00:03:15;102346.38;;;20.28
41654;BMP280;30790;52.030;7.110;2023-02-28T00:05:40;102342.59;;;20.29
41654;BMP280;30790;52.030;7.110;2023-02-28T00:08:07;102348.47;;;20.32
41654;BMP280;30790;52.030;7.110;2023-02-28T00:10:32;102342.41;;;20.30
41654;BMP280;30790;52.030;7.110;2023-02-28T00:13:03;102349.75;;;20.30
41654;BMP280;30790;52.030;7.110;2023-02-28T00:15:30;102351.41;;;20.31
41654;BMP280;30790;52.030;7.110;2023-02-28T00:17:55;102349.75;;;20.30
41654;BMP280;30790;52.030;7.110;2023-02-28T00:20:21;102345.53;;;20.27
41654;BMP280;30790;52.030;7.110;2023-02-28T00:22:48;102351.00;;;20.27
41654;BMP280;30790;52.030;7.110;2023-02-28T00:25:17;102346.75;;;20.25
41654;BMP280;30790;52.030;7.110;2023-02-28T00:27:44;102344.44;;;20.22
41654;BMP280;30790;52.030;7.110;2023-02-28T00:30:15;102353.25;;;20.24
41654;BMP280;30790;52.030;7.110;2023-02-28T00:32:40;102346.53;;;20.20
41654;BMP280;30790;52.030;7.110;2023-02-28T00:35:07;102344.88;;;20.19
41654;BMP280;30790;52.030;7.110;2023-02-28T00:37:32;102349.69;;;20.17
41654;BMP280;30790;52.030;7.110;2023-02-28T00:39:58;102345.06;;;20.17
41654;BMP280;30790;52.030;7.110;2023-02-28T00:42:23;102342.56;;;20.16
41654;BMP280;30790;52.030;7.110;2023-02-28T00:44:49;102339.19;;;20.14
41654;BMP280;30790;52.030;7.110;2023-02-28T00:47:14;102346.53;;;20.13
41654;BMP280;30790;52.030;7.110;2023-02-28T00:49:40;102337.72;;;20.11
41654;BMP280;30790;52.030;7.110;2023-02-28T00:52:06;102342.13;;;20.12
41654;BMP280;30790;52.030;7.110;2023-02-28T00:54:31;102346.75;;;20.12
41654;BMP280;30790;52.030;7.110;2023-02-28T00:56:56;102343.38;;;20.10
41654;BMP280;30790;52.030;7.110;2023-02-28T00:59:22;102340.22;;;20.06
41654;BMP280;30790;52.030;7.110;2023-02-28T01:01:47;102346.75;;;20.12
41654;BMP280;30790;52.030;7.110;2023-02-28T01:04:13;102353.25;;;20.11
41654;BMP280;30790;52.030;7.110;2023-02-28T01:06:39;102346.75;;;20.12
41654;BMP280;30790;52.030;7.110;2023-02-28T01:09:06;102351.34;;;20.11
41654;BMP280;30790;52.030;7.110;2023-02-28T01:11:32;102348.22;;;20.14
41654;BMP280;30790;52.030;7.110;2023-02-28T01:13:57;102340.88;;;20.15
41654;BMP280;30790;52.030;7.110;2023-02-28T01:16:23;102333.75;;;20.14
41654;BMP280;30790;52.030;7.110;2023-02-28T01:18:48;102342.97;;;20.13
41654;BMP280;30790;52.030;7.110;2023-02-28T01:21:16;102348.41;;;20.13
41654;BMP280;30790;52.030;7.110;2023-02-28T01:23:42;102341.28;;;20.12
41654;BMP280;30790;52.030;7.110;2023-02-28T01:26:20;102332.19;;;19.91
41654;BMP280;30790;52.030;7.110;2023-02-28T01:28:46;102332.47;;;20.03
41654;BMP280;30790;52.030;7.110;2023-02-28T01:31:12;102339.59;;;20.04
41654;BMP280;30790;52.030;7.110;2023-02-28T01:33:38;102342.13;;;20.05
41654;BMP280;30790;52.030;7.110;2023-02-28T01:36:10;102336.44;;;20.00
41654;BMP280;30790;52.030;7.110;2023-02-28T01:38:36;102333.31;;;20.03
41654;BMP280;30790;52.030;7.110;2023-02-28T01:41:02;102333.31;;;20.03
41654;BMP280;30790;52.030;7.110;2023-02-28T01:43:52;102343.38;;;20.03
41654;BMP280;30790;52.030;7.110;2023-02-28T01:46:14;102340.84;;;20.01
41654;BMP280;30790;52.030;7.110;2023-02-28T01:48:46;102332.00;;;19.99
41654;BMP280;30790;52.030;7.110;2023-02-28T01:51:18;102332.41;;;19.96
41654;BMP280;30790;52.030;7.110;2023-02-28T01:53:56;102318.78;;;19.96
41654;BMP280;30790;52.030;7.110;2023-02-28T01:56:27;102324.25;;;19.96
41654;BMP280;30790;52.030;7.110;2023-02-28T01:58:53;102314.78;;;19.92
41654;BMP280;30790;52.030;7.110;2023-02-28T02:01:21;102327.81;;;19.97
41654;BMP280;30790;52.030;7.110;2023-02-28T02:03:54;102322.34;;;19.97
41654;BMP280;30790;52.030;7.110;2023-02-28T02:06:22;102329.91;;;19.95
41654;BMP280;30790;52.030;7.110;2023-02-28T02:08:48;102329.91;;;19.95
41654;BMP280;30790;52.030;7.110;2023-02-28T02:11:17;102321.09;;;19.93
41654;BMP280;30790;52.030;7.110;2023-02-28T02:16:41;102320.88;;;19.94
41654;BMP280;30790;52.030;7.110;2023-02-28T02:22:32;102314.78;;;19.92
41654;BMP280;30790;52.030;7.110;2023-02-28T02:25:26;102307.66;;;19.91
41654;BMP280;30790;52.030;7.110;2023-02-28T02:38:50;102314.56;;;19.87
41654;BMP280;30790;52.030;7.110;2023-02-28T02:41:36;102305.13;;;19.83
41654;BMP280;30790;52.030;7.110;2023-02-28T02:44:08;102303.69;;;19.87
41654;BMP280;30790;52.030;7.110;2023-02-28T02:46:40;102295.91;;;19.84
41654;BMP280;30790;52.030;7.110;2023-02-28T02:49:10;102296.97;;;19.83
41654;BMP280;30790;52.030;7.110;2023-02-28T02:51:40;102297.78;;;19.84
41654;BMP280;30790;52.030;7.110;2023-02-28T02:54:14;102294.00;;;19.78
41654;BMP280;30790;52.030;7.110;2023-02-28T02:56:43;102294.66;;;19.80
41654;BMP280;30790;52.030;7.110;2023-02-28T02:59:12;102313.50;;;19.82
41654;BMP280;30790;52.030;7.110;2023-02-28T03:01:40;102298.41;;;19.79
41654;BMP280;30790;52.030;7.110;2023-02-28T03:04:13;102308.06;;;19.82
41654;BMP280;30790;52.030;7.110;2023-02-28T03:06:41;102306.59;;;19.79
41654;BMP280;30790;52.030;7.110;2023-02-28T03:09:06;102290.66;;;19.76
41654;BMP280;30790;52.030;7.110;2023-02-28T03:11:32;102302.19;;;19.78
41654;BMP280;30790;52.030;7.110;2023-02-28T03:16:28;102312.69;;;19.81
41654;BMP280;30790;52.030;7.110;2023-02-28T03:19:33;102304.69;;;19.80
41654;BMP280;30790;52.030;7.110;2023-02-28T03:22:32;102313.09;;;19.78
41654;BMP280;30790;52.030;7.110;2023-02-28T03:31:10;102317.69;;;19.78
41654;BMP280;30790;52.030;7.110;2023-02-28T03:34:17;102316.44;;;19.73
41654;BMP280;30790;52.030;7.110;2023-02-28T03:36:48;102314.75;;;19.72
41654;BMP280;30790;52.030;7.110;2023-02-28T03:39:22;102312.19;;;19.71
41654;BMP280;30790;52.030;7.110;2023-02-28T03:42:01;102322.72;;;19.74
41654;BMP280;30790;52.030;7.110;2023-02-28T03:44:33;102313.88;;;19.72
41654;BMP280;30790;52.030;7.110;2023-02-28T03:47:03;102319.31;;;19.72
41654;BMP280;30790;52.030;7.110;2023-02-28T03:49:53;102321.66;;;19.75
41654;BMP280;30790;52.030;7.110;2023-02-28T03:52:23;102325.44;;;19.74
41654;BMP280;30790;52.030;7.110;2023-02-28T03:54:52;102319.31;;;19.72
41654;BMP280;30790;52.030;7.110;2023-02-28T04:00:03;102319.78;;;19.75
41654;BMP280;30790;52.030;7.110;2023-02-28T04:02:31;102314.13;;;19.77
41654;BMP280;30790;52.030;7.110;2023-02-28T04:04:56;102315.59;;;19.73
41654;BMP280;30790;52.030;7.110;2023-02-28T04:07:22;102323.97;;;19.78
41654;BMP280;30790;52.030;7.110;2023-02-28T04:09:47;102320.22;;;19.79
41654;BMP280;30790;52.030;7.110;2023-02-28T04:12:12;102313.94;;;19.79
41654;BMP280;30790;52.030;7.110;2023-02-28T04:14:37;102318.97;;;19.82
41654;BMP280;30790;52.030;7.110;2023-02-28T04:17:03;102324.00;;;19.85
41654;BMP280;30790;52.030;7.110;2023-02-28T04:19:28;102318.13;;;19.88
41654;BMP280;30790;52.030;7.110;2023-02-28T04:21:54;102315.81;;;19.85
41654;BMP280;30790;52.030;7.110;2023-02-28T04:24:24;102319.63;;;19.90
41654;BMP280;30790;52.030;7.110;2023-02-28T04:26:52;102315.84;;;19.91
41654;BMP280;30790;52.030;7.110;2023-02-28T04:29:21;102323.59;;;19.94
41654;BMP280;30790;52.030;7.110;2023-02-28T04:31:47;102320.47;;;19.91
41654;BMP280;30790;52.030;7.110;2023-02-28T04:34:13;102322.16;;;19.98
41654;BMP280;30790;52.030;7.110;2023-02-28T04:36:38;102318.59;;;19.98
41654;BMP280;30790;52.030;7.110;2023-02-28T04:39:03;102325.13;;;20.03
41654;BMP280;30790;52.030;7.110;2023-02-28T04:41:29;102321.56;;;20.03
41654;BMP280;30790;52.030;7.110;2023-02-28T04:43:55;102325.75;;;20.05
41654;BMP280;30790;52.030;7.110;2023-02-28T04:46:21;102321.56;;;20.03
41654;BMP280;30790;52.030;7.110;2023-02-28T04:48:47;102333.31;;;20.03
41654;BMP280;30790;52.030;7.110;2023-02-28T04:51:14;102329.75;;;20.10
41654;BMP280;30790;52.030;7.110;2023-02-28T04:53:40;102335.41;;;20.15
41654;BMP280;30790;52.030;7.110;2023-02-28T04:56:07;102331.66;;;20.16
41654;BMP280;30790;52.030;7.110;2023-02-28T04:58:33;102334.16;;;20.17
41654;BMP280;30790;52.030;7.110;2023-02-28T05:01:07;102333.97;;;20.19
41654;BMP280;30790;52.030;7.110;2023-02-28T05:03:38;102328.72;;;20.24
41654;BMP280;30790;52.030;7.110;2023-02-28T05:06:06;102335.66;;;20.26
41654;BMP280;30790;52.030;7.110;2023-02-28T05:08:31;102324.56;;;20.28
41654;BMP280;30790;52.030;7.110;2023-02-28T05:10:56;102330.44;;;20.31
41654;BMP280;30790;52.030;7.110;2023-02-28T05:13:21;102324.16;;;20.31
41654;BMP280;30790;52.030;7.110;2023-02-28T05:15:48;102326.47;;;20.34
41654;BMP280;30790;52.030;7.110;2023-02-28T05:18:13;102333.84;;;20.40
41654;BMP280;30790;52.030;7.110;2023-02-28T05:20:38;102333.41;;;20.43
41654;BMP280;30790;52.030;7.110;2023-02-28T05:23:03;102337.41;;;20.47
41654;BMP280;30790;52.030;7.110;2023-02-28T05:25:29;102333.84;;;20.47
41654;BMP280;30790;52.030;7.110;2023-02-28T05:27:54;102339.72;;;20.50
41654;BMP280;30790;52.030;7.110;2023-02-28T05:30:19;102343.91;;;20.53
41654;BMP280;30790;52.030;7.110;2023-02-28T05:32:50;102343.28;;;20.51
41654;BMP280;30790;52.030;7.110;2023-02-28T05:35:16;102344.56;;;20.55
41654;BMP280;30790;52.030;7.110;2023-02-28T05:37:41;102350.66;;;20.57
41654;BMP280;30790;52.030;7.110;2023-02-28T05:40:07;102342.69;;;20.55
41654;BMP280;30790;52.030;7.110;2023-02-28T05:42:35;102349.81;;;20.56
41654;BMP280;30790;52.030;7.110;2023-02-28T05:45:01;102357.78;;;20.58
41654;BMP280;30790;52.030;7.110;2023-02-28T05:47:26;102351.88;;;20.54
41654;BMP280;30790;52.030;7.110;2023-02-28T05:49:51;102364.72;;;20.60
41654;BMP280;30790;52.030;7.110;2023-02-28T05:52:17;102353.97;;;20.52
41654;BMP280;30790;52.030;7.110;2023-02-28T05:54:42;102362.00;;;20.60
41654;BMP280;30790;52.030;7.110;2023-02-28T05:57:07;102365.56;;;20.67
41654;BMP280;30790;52.030;7.110;2023-02-28T05:59:33;102367.44;;;20.67
41654;BMP280;30790;52.030;7.110;2023-02-28T06:01:58;102372.28;;;20.65
41654;BMP280;30790;52.030;7.110;2023-02-28T06:04:23;102369.56;;;20.65
41654;BMP280;30790;52.030;7.110;2023-02-28T06:06:49;102362.63;;;20.62
41654;BMP280;30790;52.030;7.110;2023-02-28T06:09:16;102371.22;;;20.66
41654;BMP280;30790;52.030;7.110;2023-02-28T06:11:42;102374.16;;;20.64
41654;BMP280;30790;52.030;7.110;2023-02-28T06:14:14;102367.03;;;20.63
41654;BMP280;30790;52.030;7.110;2023-02-28T06:16:39;102368.06;;;20.62
41654;BMP280;30790;52.030;7.110;2023-02-28T06:19:05;102373.97;;;20.59
41654;BMP280;30790;52.030;7.110;2023-02-28T06:21:31;102367.66;;;20.59
41654;BMP280;30790;52.030;7.110;2023-02-28T06:23:57;102369.97;;;20.62
41654;BMP280;30790;52.030;7.110;2023-02-28T06:26:23;102369.53;;;20.58
41654;BMP280;30790;52.030;7.110;2023-02-28T06:28:49;102374.38;;;20.56
41654;BMP280;30790;52.030;7.110;2023-02-28T06:31:16;102373.75;;;20.67
41654;BMP280;30790;52.030;7.110;2023-02-28T06:33:42;102371.25;;;20.99
41654;BMP280;30790;52.030;7.110;2023-02-28T06:36:10;102381.09;;;21.20
41654;BMP280;30790;52.030;7.110;2023-02-28T06:38:35;102374.59;;;21.14
41654;BMP280;30790;52.030;7.110;2023-02-28T06:41:01;102375.03;;;21.11
41654;BMP280;30790;52.030;7.110;2023-02-28T06:43:30;102377.34;;;21.14
41654;BMP280;30790;52.030;7.110;2023-02-28T06:45:59;102377.97;;;21.10
41654;BMP280;30790;52.030;7.110;2023-02-28T06:48:26;102387.63;;;21.12
41654;BMP280;30790;52.030;7.110;2023-02-28T06:50:52;102384.28;;;21.10
41654;BMP280;30790;52.030;7.110;2023-02-28T06:53:17;102384.06;;;21.18
41654;BMP280;30790;52.030;7.110;2023-02-28T06:55:43;102383.44;;;21.29
41654;BMP280;30790;52.030;7.110;2023-02-28T06:58:08;102372.50;;;21.29
41654;BMP280;30790;52.030;7.110;2023-02-28T07:00:42;102373.13;;;21.32
41654;BMP280;30790;52.030;7.110;2023-02-28T07:03:09;102389.31;;;21.40
41654;BMP280;30790;52.030;7.110;2023-02-28T07:05:39;102385.53;;;21.41
41654;BMP280;30790;52.030;7.110;2023-02-28T07:08:05;102397.06;;;21.49
41654;BMP280;30790;52.030;7.110;2023-02-28T07:10:32;102397.03;;;21.56
41654;BMP280;30790;52.030;7.110;2023-02-28T07:12:58;102401.66;;;21.62
41654;BMP280;30790;52.030;7.110;2023-02-28T07:15:23;102386.09;;;21.63
41654;BMP280;30790;52.030;7.110;2023-02-28T07:17:48;102398.06;;;21.75
41654;BMP280;30790;52.030;7.110;2023-02-28T07:20:14;102396.78;;;21.77
41654;BMP280;30790;52.030;7.110;2023-02-28T07:22:39;102401.81;;;21.80
41654;BMP280;30790;52.030;7.110;2023-02-28T07:25:05;102395.47;;;21.86
41654;BMP280;30790;52.030;7.110;2023-02-28T07:27:31;102398.44;;;21.85
41654;BMP280;30790;52.030;7.110;2023-02-28T07:29:56;102388.78;;;21.82
41654;BMP280;30790;52.030;7.110;2023-02-28T07:32:22;102404.53;;;21.87
41654;BMP280;30790;52.030;7.110;2023-02-28T07:34:47;102403.47;;;21.88
41654;BMP280;30790;52.030;7.110;2023-02-28T07:37:13;102402.00;;;21.85
41654;BMP280;30790;52.030;7.110;2023-02-28T07:39:39;102406.84;;;21.83
41654;BMP280;30790;52.030;7.110;2023-02-28T07:42:07;102406.00;;;21.83
41654;BMP280;30790;52.030;7.110;2023-02-28T07:44:35;102407.28;;;21.80
41654;BMP280;30790;52.030;7.110;2023-02-28T07:47:06;102397.63;;;21.78
41654;BMP280;30790;52.030;7.110;2023-02-28T07:49:31;102407.91;;;21.82
41654;BMP280;30790;52.030;7.110;2023-02-28T07:51:57;102408.97;;;21.81
41654;BMP280;30790;52.030;7.110;2023-02-28T07:54:22;102409.38;;;21.85
41654;BMP280;30790;52.030;7.110;2023-02-28T07:56:47;102408.53;;;21.84
41654;BMP280;30790;52.030;7.110;2023-02-28T07:59:13;102408.78;;;21.76
41654;BMP280;30790;52.030;7.110;2023-02-28T08:01:38;102407.50;;;21.79
41654;BMP280;30790;52.030;7.110;2023-02-28T08:04:03;102417.81;;;21.77
41654;BMP280;30790;52.030;7.110;2023-02-28T08:06:28;102409.00;;;21.75
41654;BMP280;30790;52.030;7.110;2023-02-28T08:08:54;102410.88;;;21.74
41654;BMP280;30790;52.030;7.110;2023-02-28T08:11:21;102411.94;;;21.73
41654;BMP280;30790;52.030;7.110;2023-02-28T08:13:46;102419.50;;;21.71
41654;BMP280;30790;52.030;7.110;2023-02-28T08:16:12;102417.84;;;21.70
41654;BMP280;30790;52.030;7.110;2023-02-28T08:18:46;102409.84;;;21.62
41654;BMP280;30790;52.030;7.110;2023-02-28T08:21:11;102413.44;;;21.69
41654;BMP280;30790;52.030;7.110;2023-02-28T08:23:36;102405.03;;;21.64
41654;BMP280;30790;52.030;7.110;2023-02-28T08:26:03;102416.59;;;21.66
41654;BMP280;30790;52.030;7.110;2023-02-28T08:28:29;102414.06;;;21.65
41654;BMP280;30790;52.030;7.110;2023-02-28T08:30:54;102404.38;;;21.62
41654;BMP280;30790;52.030;7.110;2023-02-28T08:33:20;102415.31;;;21.62
41654;BMP280;30790;52.030;7.110;2023-02-28T08:35:45;102408.16;;;21.61
41654;BMP280;30790;52.030;7.110;2023-02-28T08:38:10;102415.13;;;21.57
41654;BMP280;30790;52.030;7.110;2023-02-28T08:40:35;102415.34;;;21.55
41654;BMP280;30790;52.030;7.110;2023-02-28T08:43:01;102414.50;;;21.55
41654;BMP280;30790;52.030;7.110;2023-02-28T08:45:26;102422.28;;;21.51
41654;BMP280;30790;52.030;7.110;2023-02-28T08:47:54;102407.78;;;21.44
41654;BMP280;30790;52.030;7.110;2023-02-28T08:50:19;102419.97;;;21.55
41654;BMP280;30790;52.030;7.110;2023-02-28T08:52:44;102412.16;;;21.58
41654;BMP280;30790;52.030;7.110;2023-02-28T08:55:10;102403.13;;;21.58
41654;BMP280;30790;52.030;7.110;2023-02-28T08:57:35;102417.19;;;21.62
41654;BMP280;30790;52.030;7.110;2023-02-28T09:00:02;102415.31;;;21.62
41654;BMP280;30790;52.030;7.110;2023-02-28T09:02:30;102415.97;;;21.64
41654;BMP280;30790;52.030;7.110;2023-02-28T09:04:56;102422.06;;;21.66
41654;BMP280;30790;52.030;7.110;2023-02-28T09:07:22;102419.53;;;21.65
41654;BMP280;30790;52.030;7.110;2023-02-28T09:09:47;102398.09;;;21.55
41654;BMP280;30790;52.030;7.110;2023-02-28T09:12:20;102411.13;;;21.66
41654;BMP280;30790;52.030;7.110;2023-02-28T09:14:45;102417.81;;;21.64
41654;BMP280;30790;52.030;7.110;2023-02-28T09:17:11;102411.13;;;21.66
41654;BMP280;30790;52.030;7.110;2023-02-28T09:19:36;102411.75;;;21.68
41654;BMP280;30790;52.030;7.110;2023-02-28T09:22:02;102412.84;;;21.47
41654;BMP280;30790;52.030;7.110;2023-02-28T09:24:27;102416.63;;;21.26
41654;BMP280;30790;52.030;7.110;2023-02-28T09:26:53;102411.56;;;20.90
41654;BMP280;30790;52.030;7.110;2023-02-28T09:29:18;102411.56;;;20.97
41654;BMP280;30790;52.030;7.110;2023-02-28T09:31:43;102404.00;;;21.12
41654;BMP280;30790;52.030;7.110;2023-02-28T09:34:09;102406.53;;;21.20
41654;BMP280;30790;52.030;7.110;2023-02-28T09:36:34;102403.78;;;21.20
41654;BMP280;30790;52.030;7.110;2023-02-28T09:39:02;102404.88;;;21.26
41654;BMP280;30790;52.030;7.110;2023-02-28T09:41:32;102415.78;;;21.46
41654;BMP280;30790;52.030;7.110;2023-02-28T09:44:03;102406.53;;;21.14
41654;BMP280;30790;52.030;7.110;2023-02-28T09:46:32;102408.22;;;21.41
41654;BMP280;30790;52.030;7.110;2023-02-28T09:49:02;102410.25;;;21.72
41654;BMP280;30790;52.030;7.110;2023-02-28T09:51:37;102410.19;;;21.85
41654;BMP280;30790;52.030;7.110;2023-02-28T09:54:05;102413.13;;;21.97
41654;BMP280;30790;52.030;7.110;2023-02-28T09:56:36;102412.28;;;21.97
41654;BMP280;30790;52.030;7.110;2023-02-28T09:59:10;102404.91;;;21.97
41654;BMP280;30790;52.030;7.110;2023-02-28T10:10:04;102402.19;;;21.90
41654;BMP280;30790;52.030;7.110;2023-02-28T10:12:31;102402.19;;;21.90
41654;BMP280;30790;52.030;7.110;2023-02-28T10:14:57;102407.47;;;21.92
41654;BMP280;30790;52.030;7.110;2023-02-28T10:17:26;102399.28;;;21.92
41654;BMP280;30790;52.030;7.110;2023-02-28T10:20:00;102405.13;;;21.89
41654;BMP280;30790;52.030;7.110;2023-02-28T10:25:22;102406.00;;;21.83
41654;BMP280;30790;52.030;7.110;2023-02-28T10:27:48;102412.41;;;21.50
41654;BMP280;30790;52.030;7.110;2023-02-28T10:30:14;102402.50;;;21.56
41654;BMP280;30790;52.030;7.110;2023-02-28T10:32:46;102397.22;;;21.61
41654;BMP280;30790;52.030;7.110;2023-02-28T10:35:17;102405.44;;;21.68
41654;BMP280;30790;52.030;7.110;2023-02-28T10:37:46;102405.66;;;21.66
41654;BMP280;30790;52.030;7.110;2023-02-28T10:45:19;102399.78;;;21.56
41654;BMP280;30790;52.030;7.110;2023-02-28T10:58:23;102392.66;;;21.35
41654;BMP280;30790;52.030;7.110;2023-02-28T11:00:49;102390.13;;;21.34
41654;BMP280;30790;52.030;7.110;2023-02-28T11:03:30;102392.69;;;21.28
41654;BMP280;30790;52.030;7.110;2023-02-28T11:05:56;102392.47;;;21.30
41654;BMP280;30790;52.030;7.110;2023-02-28T11:08:22;102393.09;;;21.25
41654;BMP280;30790;52.030;7.110;2023-02-28T11:10:53;102388.69;;;21.24
41654;BMP280;30790;52.030;7.110;2023-02-28T11:13:21;102390.13;;;21.20
41654;BMP280;30790;52.030;7.110;2023-02-28T11:15:55;102388.88;;;21.23
41654;BMP280;30790;52.030;7.110;2023-02-28T11:21:09;102393.94;;;21.13
41654;BMP280;30790;52.030;7.110;2023-02-28T11:23:41;102390.34;;;21.06
41654;BMP280;30790;52.030;7.110;2023-02-28T11:26:07;102384.28;;;21.10
41654;BMP280;30790;52.030;7.110;2023-02-28T11:28:40;102380.88;;;21.21
41654;BMP280;30790;52.030;7.110;2023-02-28T11:33:54;102382.16;;;21.39
41654;BMP280;30790;52.030;7.110;2023-02-28T11:36:23;102380.25;;;21.46
41654;BMP280;30790;52.030;7.110;2023-02-28T11:38:50;102377.72;;;21.51
41654;BMP280;30790;52.030;7.110;2023-02-28T11:41:49;102379.19;;;21.53
41654;BMP280;30790;52.030;7.110;2023-02-28T11:47:40;102377.91;;;21.56
41654;BMP280;30790;52.030;7.110;2023-02-28T11:50:19;102376.03;;;21.56
41654;BMP280;30790;52.030;7.110;2023-02-28T11:52:55;102364.69;;;21.53
41654;BMP280;30790;52.030;7.110;2023-02-28T12:03:07;102371.19;;;21.52
41654;BMP280;30790;52.030;7.110;2023-02-28T12:21:55;102340.34;;;21.45
41654;BMP280;30790;52.030;7.110;2023-02-28T12:24:31;102332.13;;;21.45
41654;BMP280;30790;52.030;7.110;2023-02-28T12:27:01;102330.47;;;21.44
41654;BMP280;30790;52.030;7.110;2023-02-28T12:29:42;102315.56;;;21.40
41654;BMP280;30790;52.030;7.110;2023-02-28T12:32:19;102329.84;;;21.42
41654;BMP280;30790;52.030;7.110;2023-02-28T12:34:58;102328.78;;;21.43
41654;BMP280;30790;52.030;7.110;2023-02-28T12:37:55;102315.41;;;20.62
41654;BMP280;30790;52.030;7.110;2023-02-28T12:40:23;102319.34;;;17.52
41654;BMP280;30790;52.030;7.110;2023-02-28T12:43:03;102311.13;;;17.45
41654;BMP280;30790;52.030;7.110;2023-02-28T12:45:49;102314.63;;;16.87
41654;BMP280;30790;52.030;7.110;2023-02-28T12:48:22;102301.06;;;16.49
41654;BMP280;30790;52.030;7.110;2023-02-28T12:50:50;102298.09;;;18.06
41654;BMP280;30790;52.030;7.110;2023-02-28T12:53:27;102291.63;;;19.27
41654;BMP280;30790;52.030;7.110;2023-02-28T12:56:09;102297.47;;;20.13
41654;BMP280;30790;52.030;7.110;2023-02-28T12:58:44;102291.88;;;20.54
41654;BMP280;30790;52.030;7.110;2023-02-28T13:09:56;102279.84;;;21.08
41654;BMP280;30790;52.030;7.110;2023-02-28T13:12:23;102282.56;;;21.21
41654;BMP280;30790;52.030;7.110;2023-02-28T13:14:50;102280.50;;;21.23
41654;BMP280;30790;52.030;7.110;2023-02-28T13:17:19;102268.50;;;21.31
41654;BMP280;30790;52.030;7.110;2023-02-28T13:24:55;102268.41;;;21.57
41654;BMP280;30790;52.030;7.110;2023-02-28T13:27:35;102266.91;;;21.62
41654;BMP280;30790;52.030;7.110;2023-02-28T13:30:01;102269.00;;;21.66
41654;BMP280;30790;52.030;7.110;2023-02-28T13:32:34;102268.13;;;21.72
41654;BMP280;30790;52.030;7.110;2023-02-28T13:39:59;102266.81;;;21.81
41654;BMP280;30790;52.030;7.110;2023-02-28T13:45:25;102269.72;;;21.86
41654;BMP280;30790;52.030;7.110;2023-02-28T13:47:56;102251.25;;;21.82
41654;BMP280;30790;52.030;7.110;2023-02-28T13:55:53;102270.44;;;21.75
41654;BMP280;30790;52.030;7.110;2023-02-28T14:01:14;102260.38;;;21.69
41654;BMP280;30790;52.030;7.110;2023-02-28T14:06:55;102260.56;;;21.74
41654;BMP280;30790;52.030;7.110;2023-02-28T14:09:35;102254.03;;;21.75
41654;BMP280;30790;52.030;7.110;2023-02-28T14:15:59;102256.75;;;21.75
41654;BMP280;30790;52.030;7.110;2023-02-28T14:18:21;102263.06;;;21.76
41654;BMP280;30790;52.030;7.110;2023-02-28T14:20:47;102258.88;;;21.73
41654;BMP280;30790;52.030;7.110;2023-02-28T14:23:24;102262.88;;;21.71
41654;BMP280;30790;52.030;7.110;2023-02-28T14:31:25;102238.50;;;21.69
41654;BMP280;30790;52.030;7.110;2023-02-28T14:36:48;102251.34;;;21.69
41654;BMP280;30790;52.030;7.110;2023-02-28T14:39:22;102251.56;;;21.67
41654;BMP280;30790;52.030;7.110;2023-02-28T14:41:49;102257.63;;;21.69
41654;BMP280;30790;52.030;7.110;2023-02-28T14:44:24;102255.34;;;21.66
41654;BMP280;30790;52.030;7.110;2023-02-28T14:46:58;102249.25;;;21.64
41654;BMP280;30790;52.030;7.110;2023-02-28T14:49:28;102250.09;;;21.65
41654;BMP280;30790;52.030;7.110;2023-02-28T14:52:14;102237.91;;;21.60
41654;BMP280;30790;52.030;7.110;2023-02-28T14:54:41;102242.97;;;21.57
41654;BMP280;30790;52.030;7.110;2023-02-28T14:57:21;102231.25;;;21.50
41654;BMP280;30790;52.030;7.110;2023-02-28T14:59:46;102230.19;;;21.51
41654;BMP280;30790;52.030;7.110;2023-02-28T15:02:23;102230.03;;;21.39
41654;BMP280;30790;52.030;7.110;2023-02-28T15:07:20;102228.72;;;21.48
41654;BMP280;30790;52.030;7.110;2023-02-28T15:10:17;102230.00;;;21.46
41654;BMP280;30790;52.030;7.110;2023-02-28T15:12:49;102227.28;;;21.46
41654;BMP280;30790;52.030;7.110;2023-02-28T15:15:16;102214.03;;;21.43
41654;BMP280;30790;52.030;7.110;2023-02-28T15:17:45;102230.84;;;21.46
41654;BMP280;30790;52.030;7.110;2023-02-28T15:20:13;102218.88;;;21.41
41654;BMP280;30790;52.030;7.110;2023-02-28T15:22:39;102222.69;;;21.40
41654;BMP280;30790;52.030;7.110;2023-02-28T15:25:06;102217.00;;;21.35
41654;BMP280;30790;52.030;7.110;2023-02-28T15:27:33;102234.03;;;21.30
41654;BMP280;30790;52.030;7.110;2023-02-28T15:30:15;102241.59;;;21.35
41654;BMP280;30790;52.030;7.110;2023-02-28T15:32:42;102238.44;;;21.31
41654;BMP280;30790;52.030;7.110;2023-02-28T15:37:56;102226.25;;;21.34
41654;BMP280;30790;52.030;7.110;2023-02-28T15:40:31;102236.97;;;21.42
41654;BMP280;30790;52.030;7.110;2023-02-28T15:45:41;102235.03;;;21.49
41654;BMP280;30790;52.030;7.110;2023-02-28T15:48:21;102236.69;;;21.50
41654;BMP280;30790;52.030;7.110;2023-02-28T15:50:51;102233.34;;;21.48
41654;BMP280;30790;52.030;7.110;2023-02-28T15:53:23;102234.19;;;21.48
41654;BMP280;30790;52.030;7.110;2023-02-28T15:55:56;102241.31;;;21.49
41654;BMP280;30790;52.030;7.110;2023-02-28T15:58:24;102235.25;;;21.47
41654;BMP280;30790;52.030;7.110;2023-02-28T16:03:49;102237.56;;;21.44
41654;BMP280;30790;52.030;7.110;2023-02-28T16:08:46;102233.59;;;21.40
41654;BMP280;30790;52.030;7.110;2023-02-28T16:11:13;102240.97;;;21.39
41654;BMP280;30790;52.030;7.110;2023-02-28T16:13:39;102241.19;;;21.38
41654;BMP280;30790;52.030;7.110;2023-02-28T16:16:04;102238.22;;;21.33
41654;BMP280;30790;52.030;7.110;2023-02-28T16:18:30;102234.22;;;21.35
41654;BMP280;30790;52.030;7.110;2023-02-28T16:20:55;102242.63;;;21.40
41654;BMP280;30790;52.030;7.110;2023-02-28T16:23:21;102226.88;;;21.36
41654;BMP280;30790;52.030;7.110;2023-02-28T16:25:46;102239.06;;;21.40
41654;BMP280;30790;52.030;7.110;2023-02-28T16:28:22;102241.38;;;21.43
41654;BMP280;30790;52.030;7.110;2023-02-28T16:30:51;102244.09;;;21.43
41654;BMP280;30790;52.030;7.110;2023-02-28T16:33:16;102250.19;;;21.45